createdAt,value
2023-02-22T00:02:11.171Z,85.21
2023-02-22T00:05:17.098Z,86.33
2023-02-22T00:08:24.452Z,86.11
2023-02-22T00:11:27.598Z,85.67
2023-02-22T00:14:30.377Z,86.67
2023-02-22T00:17:34.293Z,85.81
2023-02-22T00:20:40.548Z,85.23
2023-02-22T00:23:49.108Z,84.98
2023-02-22T00:26:55.811Z,84.78
2023-02-22T00:29:59.096Z,84.86
2023-02-22T00:33:02.101Z,85.45
2023-02-22T00:36:05.529Z,85.84
2023-02-22T00:39:10.038Z,85.81
2023-02-22T00:42:14.431Z,86.48
2023-02-22T00:45:21.890Z,86.02
2023-02-22T00:48:25.559Z,85.37
2023-02-22T00:51:28.983Z,86.17
2023-02-22T00:54:31.989Z,86.03
2023-02-22T00:57:35.371Z,85.61
2023-02-22T01:00:41.786Z,84.56
2023-02-22T01:03:45.156Z,84.72
2023-02-22T01:06:48.354Z,84.82
2023-02-22T01:09:51.127Z,84.48
2023-02-22T01:12:54.985Z,84.56
2023-02-22T01:15:57.694Z,84.89
2023-02-22T01:19:01.558Z,85.05
2023-02-22T01:22:05.666Z,85.94
2023-02-22T01:25:10.789Z,85.28
2023-02-22T01:28:14.078Z,84.79
2023-02-22T01:31:18.045Z,86.26
2023-02-22T01:34:22.907Z,86.13
2023-02-22T01:37:25.851Z,84.95
2023-02-22T01:40:36.922Z,85.97
2023-02-22T01:43:40.021Z,85.28
2023-02-22T01:46:42.830Z,85.08
2023-02-22T01:49:50.285Z,85.98
2023-02-22T01:52:53.309Z,86.69
2023-02-22T01:55:57.296Z,86.23
2023-02-22T01:59:03.896Z,86.83
2023-02-22T02:02:07.405Z,87.08
2023-02-22T02:05:11.011Z,86.31
2023-02-22T02:08:39.207Z,85.35
2023-02-22T02:11:42.774Z,84.90
2023-02-22T02:14:45.924Z,84.76
2023-02-22T02:17:50.441Z,84.66
2023-02-22T02:21:10.573Z,84.95
2023-02-22T02:24:33.229Z,85.08
2023-02-22T02:27:45.298Z,84.40
2023-02-22T02:31:11.182Z,84.54
2023-02-22T02:34:32.297Z,84.57
2023-02-22T02:38:22.317Z,84.97
2023-02-22T02:41:30.170Z,85.25
2023-02-22T02:44:38.944Z,85.82
2023-02-22T02:47:48.123Z,85.45
2023-02-22T02:50:51.539Z,85.72
2023-02-22T02:53:56.134Z,85.55
2023-02-22T02:56:59.298Z,85.20
2023-02-22T03:00:02.355Z,85.04
2023-02-22T03:03:25.312Z,84.99
2023-02-22T03:07:08.520Z,85.18
2023-02-22T03:10:43.416Z,85.25
2023-02-22T03:14:30.004Z,85.37
2023-02-22T03:17:52.842Z,86.82
2023-02-22T03:21:29.944Z,86.15
2023-02-22T03:25:02.325Z,85.47
2023-02-22T03:28:11.924Z,85.41
2023-02-22T03:31:21.759Z,85.03
2023-02-22T03:34:35.342Z,85.73
2023-02-22T03:37:46.714Z,85.65
2023-02-22T03:40:54.658Z,85.56
2023-02-22T03:44:05.705Z,86.87
2023-02-22T03:47:14.459Z,86.49
2023-02-22T03:50:20.380Z,86.08
2023-02-22T03:53:23.678Z,87.54
2023-02-22T03:56:36.081Z,87.11
2023-02-22T03:59:40.451Z,87.22
2023-02-22T04:02:43.257Z,87.27
2023-02-22T04:05:47.204Z,88.66
2023-02-22T04:08:50.054Z,88.24
2023-02-22T04:11:53.384Z,87.69
2023-02-22T04:14:56.364Z,87.83
2023-02-22T04:18:00.172Z,87.72
2023-02-22T04:21:04.329Z,88.09
2023-02-22T04:24:08.080Z,88.36
2023-02-22T04:27:10.960Z,88.17
2023-02-22T04:30:16.998Z,88.18
2023-02-22T04:33:19.936Z,88.07
2023-02-22T04:36:23.195Z,88.42
2023-02-22T04:39:26.197Z,87.96
2023-02-22T04:42:29.975Z,87.55
2023-02-22T04:45:32.723Z,87.20
2023-02-22T04:48:36.734Z,87.99
2023-02-22T04:51:39.722Z,88.24
2023-02-22T04:54:43.208Z,88.25
2023-02-22T04:57:46.024Z,87.68
2023-02-22T05:00:49.253Z,88.37
2023-02-22T05:03:52.094Z,88.82
2023-02-22T05:06:55.210Z,88.17
2023-02-22T05:09:58.013Z,87.86
2023-02-22T05:13:01.958Z,87.68
2023-02-22T05:16:06.175Z,87.96
2023-02-22T05:19:09.376Z,87.54
2023-02-22T05:22:12.012Z,87.78
2023-02-22T05:25:15.179Z,87.11
2023-02-22T05:28:17.919Z,86.91
2023-02-22T05:31:21.023Z,86.63
2023-02-22T05:34:24.150Z,86.56
2023-02-22T05:37:27.647Z,86.89
2023-02-22T05:40:31.692Z,86.55
2023-02-22T05:43:34.773Z,86.49
2023-02-22T05:46:37.552Z,87.05
2023-02-22T05:49:40.829Z,87.21
2023-02-22T05:52:43.982Z,86.75
2023-02-22T05:55:47.175Z,86.35
2023-02-22T05:58:50.167Z,87.68
2023-02-22T06:01:53.293Z,88.05
2023-02-22T06:04:56.535Z,88.06
2023-02-22T06:07:59.597Z,87.69
2023-02-22T06:11:02.765Z,87.65
2023-02-22T06:14:05.494Z,87.95
2023-02-22T06:17:08.516Z,88.33
2023-02-22T06:20:13.649Z,87.88
2023-02-22T06:23:16.852Z,88.39
2023-02-22T06:26:20.045Z,88.37
2023-02-22T06:29:27.630Z,88.15
2023-02-22T06:32:30.389Z,88.79
2023-02-22T06:35:33.453Z,88.84
2023-02-22T06:38:36.209Z,88.75
2023-02-22T06:41:39.351Z,88.02
2023-02-22T06:44:42.027Z,88.00
2023-02-22T06:47:45.455Z,88.04
2023-02-22T06:50:48.121Z,87.73
2023-02-22T06:53:51.171Z,87.65
2023-02-22T06:56:53.825Z,88.06
2023-02-22T06:59:57.625Z,87.29
2023-02-22T07:03:00.945Z,87.03
2023-02-22T07:06:05.064Z,86.59
2023-02-22T07:09:07.840Z,86.55
2023-02-22T07:12:11.076Z,86.32
2023-02-22T07:15:14.232Z,85.76
2023-02-22T07:18:17.322Z,85.60
2023-02-22T07:21:20.070Z,85.39
2023-02-22T07:24:23.177Z,85.23
2023-02-22T07:27:25.900Z,84.72
2023-02-22T07:30:31.662Z,84.22
2023-02-22T07:33:35.671Z,84.28
2023-02-22T07:36:38.801Z,83.95
2023-02-22T07:39:43.904Z,83.85
2023-02-22T07:43:14.613Z,83.14
2023-02-22T07:46:17.379Z,83.08
2023-02-22T07:49:20.552Z,83.23
2023-02-22T07:52:23.184Z,83.29
2023-02-22T07:55:28.831Z,83.04
2023-02-22T07:58:32.773Z,82.64
2023-02-22T08:01:37.448Z,82.54
2023-02-22T08:04:40.595Z,82.21
2023-02-22T08:07:43.549Z,82.31
2023-02-22T08:10:47.458Z,82.19
2023-02-22T08:13:50.209Z,81.74
2023-02-22T08:16:53.331Z,81.24
2023-02-22T08:19:56.117Z,81.16
2023-02-22T08:22:59.092Z,80.55
2023-02-22T08:26:08.064Z,79.80
2023-02-22T08:29:11.069Z,78.91
2023-02-22T08:32:13.973Z,78.81
2023-02-22T08:35:18.593Z,78.86
2023-02-22T08:38:25.172Z,78.74
2023-02-22T08:41:28.192Z,78.24
2023-02-22T08:44:30.867Z,77.55
2023-02-22T08:47:34.475Z,77.01
2023-02-22T08:50:38.350Z,77.51
2023-02-22T08:53:41.395Z,77.40
2023-02-22T08:56:45.153Z,77.18
2023-02-22T08:59:48.143Z,76.93
2023-02-22T09:02:54.268Z,76.79
2023-02-22T09:05:59.709Z,76.64
2023-02-22T09:09:02.951Z,76.37
2023-02-22T09:12:06.333Z,75.97
2023-02-22T09:15:09.799Z,75.75
2023-02-22T09:18:14.860Z,75.71
2023-02-22T09:21:18.170Z,75.92
2023-02-22T09:24:21.714Z,75.75
2023-02-22T09:27:24.600Z,76.51
2023-02-22T09:30:34.075Z,76.35
2023-02-22T09:33:36.880Z,76.00
2023-02-22T09:36:44.360Z,75.57
2023-02-22T09:39:47.182Z,74.82
2023-02-22T09:43:01.072Z,74.52
2023-02-22T09:46:19.718Z,73.85
2023-02-22T09:49:40.069Z,73.37
2023-02-22T09:52:58.072Z,73.08
2023-02-22T09:56:06.998Z,71.64
2023-02-22T09:59:15.861Z,70.56
2023-02-22T10:02:31.843Z,67.73
2023-02-22T10:05:39.984Z,65.62
2023-02-22T10:08:45.062Z,63.39
2023-02-22T10:12:16.544Z,62.28
2023-02-22T10:15:41.598Z,59.46
2023-02-22T10:18:48.179Z,55.96
2023-02-22T10:21:50.804Z,54.65
2023-02-22T10:25:00.202Z,53.24
2023-02-22T10:28:28.394Z,49.81
2023-02-22T10:31:34.138Z,48.90
2023-02-22T10:34:43.391Z,48.28
2023-02-22T10:37:48.453Z,48.73
2023-02-22T10:41:17.542Z,47.58
2023-02-22T10:44:20.714Z,49.08
2023-02-22T10:47:24.852Z,47.82
2023-02-22T10:50:32.260Z,44.34
2023-02-22T10:53:38.484Z,44.50
2023-02-22T10:56:55.171Z,45.80
2023-02-22T10:59:58.549Z,45.27
2023-02-22T11:03:18.129Z,46.20
2023-02-22T11:06:21.943Z,43.74
2023-02-22T11:09:25.678Z,43.47
2023-02-22T11:12:32.863Z,42.50
2023-02-22T11:15:36.212Z,42.85
2023-02-22T11:18:39.053Z,44.04
2023-02-22T11:21:43.288Z,46.64
2023-02-22T11:25:02.604Z,44.99
2023-02-22T11:28:15.097Z,46.24
2023-02-22T11:31:21.997Z,42.91
2023-02-22T11:34:26.695Z,41.45
2023-02-22T11:37:36.745Z,41.33
2023-02-22T11:40:40.370Z,41.00
2023-02-22T11:43:48.216Z,40.91
2023-02-22T11:46:55.863Z,40.48
2023-02-22T11:49:58.617Z,40.80
2023-02-22T11:53:40.097Z,43.40
2023-02-22T11:56:49.986Z,42.79
2023-02-22T12:00:17.034Z,43.25
2023-02-22T12:03:50.100Z,42.35
2023-02-22T12:07:10.781Z,42.23
2023-02-22T12:10:47.223Z,41.92
2023-02-22T12:14:07.831Z,42.59
2023-02-22T12:17:26.180Z,43.54
2023-02-22T12:20:47.815Z,43.55
2023-02-22T12:24:07.486Z,43.22
2023-02-22T12:27:22.604Z,43.99
2023-02-22T12:30:34.571Z,45.48
2023-02-22T12:34:20.174Z,47.38
2023-02-22T12:37:29.168Z,48.73
2023-02-22T12:40:54.761Z,52.11
2023-02-22T12:44:10.130Z,53.17
2023-02-22T12:47:21.839Z,53.43
2023-02-22T12:50:29.764Z,54.84
2023-02-22T12:53:37.307Z,55.88
2023-02-22T12:56:56.283Z,56.84
2023-02-22T13:00:10.454Z,58.46
2023-02-22T13:03:35.148Z,59.06
2023-02-22T13:07:08.865Z,59.51
2023-02-22T13:10:31.527Z,59.74
2023-02-22T13:13:55.630Z,60.22
2023-02-22T13:17:24.941Z,60.17
2023-02-22T13:20:34.436Z,61.91
2023-02-22T13:23:50.637Z,60.06
2023-02-22T13:27:22.969Z,59.72
2023-02-22T13:30:51.793Z,58.49
2023-02-22T13:34:40.347Z,59.69
2023-02-22T13:38:05.978Z,58.68
2023-02-22T13:41:20.851Z,58.24
2023-02-22T13:45:13.299Z,58.57
2023-02-22T13:48:24.897Z,60.31
2023-02-22T13:51:37.180Z,59.40
2023-02-22T13:55:11.334Z,60.01
2023-02-22T13:58:15.612Z,60.56
2023-02-22T14:01:42.682Z,60.70
2023-02-22T14:04:45.780Z,60.91
2023-02-22T14:07:49.578Z,60.88
2023-02-22T14:10:55.951Z,61.20
2023-02-22T14:14:01.204Z,61.15
2023-02-22T14:17:28.983Z,61.50
2023-02-22T14:20:40.400Z,61.44
2023-02-22T14:23:45.958Z,61.58
2023-02-22T14:26:59.761Z,61.81
2023-02-22T14:30:02.978Z,61.20
2023-02-22T14:33:44.346Z,61.28
2023-02-22T14:36:58.868Z,61.58
2023-02-22T14:40:13.253Z,61.56
2023-02-22T14:43:21.319Z,61.37
2023-02-22T14:46:29.679Z,61.26
2023-02-22T14:49:42.319Z,61.29
2023-02-22T14:52:48.993Z,61.52
2023-02-22T14:56:02.863Z,62.28
2023-02-22T14:59:17.870Z,61.27
2023-02-22T15:02:26.133Z,62.75
2023-02-22T15:05:38.712Z,61.43
2023-02-22T15:08:48.959Z,61.29
2023-02-22T15:12:04.228Z,61.54
2023-02-22T15:15:14.529Z,61.68
2023-02-22T15:18:22.255Z,61.41
2023-02-22T15:21:28.562Z,61.13
2023-02-22T15:24:34.903Z,61.29
2023-02-22T15:27:41.437Z,61.88
2023-02-22T15:30:44.772Z,61.74
2023-02-22T15:33:47.890Z,61.89
2023-02-22T15:36:54.790Z,61.72
2023-02-22T15:40:21.116Z,61.79
2023-02-22T15:43:25.415Z,62.13
2023-02-22T15:46:29.222Z,62.19
2023-02-22T15:49:37.241Z,62.27
2023-02-22T15:52:40.375Z,62.58
2023-02-22T15:55:50.054Z,62.56
2023-02-22T15:59:00.996Z,63.17
2023-02-22T16:02:04.341Z,63.29
2023-02-22T16:05:12.410Z,63.37
2023-02-22T16:08:23.473Z,63.74
2023-02-22T16:11:32.189Z,63.63
2023-02-22T16:14:35.016Z,63.95
2023-02-22T16:18:02.347Z,64.07
2023-02-22T16:21:13.282Z,63.88
2023-02-22T16:24:27.036Z,63.44
2023-02-22T16:27:29.914Z,63.52
2023-02-22T16:30:38.665Z,64.46
2023-02-22T16:33:43.517Z,64.86
2023-02-22T16:36:52.059Z,66.27
2023-02-22T16:39:56.847Z,66.84
2023-02-22T16:43:03.049Z,66.71
2023-02-22T16:46:07.232Z,66.43
2023-02-22T16:49:12.826Z,66.37
2023-02-22T16:52:15.963Z,66.42
2023-02-22T16:55:22.740Z,66.83
2023-02-22T16:58:30.073Z,66.75
2023-02-22T17:01:35.209Z,66.41
2023-02-22T17:04:40.414Z,66.33
2023-02-22T17:07:45.417Z,66.85
2023-02-22T17:10:51.751Z,66.36
2023-02-22T17:13:55.903Z,66.55
2023-02-22T17:16:59.919Z,66.73
2023-02-22T17:20:12.011Z,66.43
2023-02-22T17:23:15.592Z,65.87
2023-02-22T17:26:19.697Z,65.91
2023-02-22T17:29:23.152Z,66.94
2023-02-22T17:32:26.927Z,67.24
2023-02-22T17:35:36.507Z,67.19
2023-02-22T17:38:42.662Z,67.54
2023-02-22T17:41:46.212Z,67.56
2023-02-22T17:44:50.333Z,67.89
2023-02-22T17:47:53.657Z,67.99
2023-02-22T17:50:57.373Z,67.96
2023-02-22T17:54:02.177Z,67.72
2023-02-22T17:57:06.135Z,67.22
2023-02-22T18:00:16.326Z,67.01
2023-02-22T18:03:26.173Z,67.39
2023-02-22T18:06:33.393Z,67.84
2023-02-22T18:09:38.970Z,68.34
2023-02-22T18:12:44.308Z,68.78
2023-02-22T18:15:49.231Z,68.58
2023-02-22T18:18:54.203Z,68.55
2023-02-22T18:22:00.405Z,68.23
2023-02-22T18:25:04.241Z,67.28
2023-02-22T18:28:09.128Z,67.67
2023-02-22T18:31:16.020Z,67.92
2023-02-22T18:34:19.678Z,68.04
2023-02-22T18:37:24.674Z,69.20
2023-02-22T18:40:32.433Z,69.12
2023-02-22T18:43:38.653Z,68.64
2023-02-22T18:46:46.586Z,69.97
2023-02-22T18:49:51.393Z,70.51
2023-02-22T18:52:56.160Z,70.95
2023-02-22T18:56:08.028Z,70.26
2023-02-22T18:59:13.435Z,70.59
2023-02-22T19:02:21.935Z,70.65
2023-02-22T19:05:25.805Z,70.42
2023-02-22T19:08:33.334Z,70.31
2023-02-22T19:11:39.101Z,70.82
2023-02-22T19:14:43.178Z,70.28
2023-02-22T19:17:47.946Z,69.95
2023-02-22T19:20:59.968Z,71.18
2023-02-22T19:24:06.808Z,71.37
2023-02-22T19:27:11.763Z,71.30
2023-02-22T19:30:20.857Z,71.03
2023-02-22T19:33:26.336Z,71.13
2023-02-22T19:36:32.405Z,72.37
2023-02-22T19:39:39.136Z,72.12
2023-02-22T19:42:46.561Z,73.35
2023-02-22T19:45:50.460Z,72.71
2023-02-22T19:48:59.122Z,72.09
2023-02-22T19:52:07.885Z,72.49
2023-02-22T19:55:19.917Z,73.67
2023-02-22T19:58:24.506Z,72.65
2023-02-22T20:01:33.979Z,73.23
2023-02-22T20:04:39.061Z,72.94
2023-02-22T20:07:44.795Z,73.01
2023-02-22T20:10:49.111Z,72.94
2023-02-22T20:13:57.656Z,73.51
2023-02-22T20:17:02.447Z,73.20
2023-02-22T20:20:07.586Z,73.79
2023-02-22T20:23:15.675Z,73.67
2023-02-22T20:26:24.942Z,73.43
2023-02-22T20:29:32.352Z,73.16
2023-02-22T20:32:40.912Z,73.12
2023-02-22T20:35:46.517Z,73.28
2023-02-22T20:38:55.038Z,72.66
2023-02-22T20:42:02.151Z,73.21
2023-02-22T20:45:07.186Z,72.81
2023-02-22T20:48:12.351Z,72.80
2023-02-22T20:51:17.460Z,73.04
2023-02-22T20:54:22.366Z,73.32
2023-02-22T20:57:25.776Z,73.47
2023-02-22T21:00:30.816Z,73.16
2023-02-22T21:03:36.088Z,73.05
2023-02-22T21:06:42.361Z,73.48
2023-02-22T21:09:46.326Z,73.64
2023-02-22T21:12:52.292Z,73.77
2023-02-22T21:15:56.300Z,73.32
2023-02-22T21:19:04.524Z,73.69
2023-02-22T21:22:09.011Z,73.02
2023-02-22T21:25:14.723Z,72.74
2023-02-22T21:28:18.713Z,74.58
2023-02-22T21:31:24.960Z,74.57
2023-02-22T21:34:32.051Z,75.21
2023-02-22T21:37:35.826Z,74.62
2023-02-22T21:40:39.552Z,74.65
2023-02-22T21:43:44.715Z,74.95
2023-02-22T21:46:51.035Z,74.45
2023-02-22T21:49:54.888Z,74.64
2023-02-22T21:52:58.405Z,74.46
2023-02-22T21:56:06.021Z,74.98
2023-02-22T21:59:15.739Z,76.29
2023-02-22T22:02:21.111Z,75.94
2023-02-22T22:05:34.868Z,75.75
2023-02-22T22:08:40.347Z,76.37
2023-02-22T22:11:43.419Z,77.08
2023-02-22T22:14:46.195Z,77.23
2023-02-22T22:17:49.316Z,76.09
2023-02-22T22:20:52.069Z,76.56
2023-02-22T22:23:56.343Z,76.95
2023-02-22T22:27:03.826Z,77.54
2023-02-22T22:30:08.333Z,77.32
2023-02-22T22:33:11.590Z,76.79
2023-02-22T22:36:17.215Z,76.71
2023-02-22T22:39:21.337Z,76.64
2023-02-22T22:42:25.142Z,77.00
2023-02-22T22:45:27.961Z,77.16
2023-02-22T22:48:36.168Z,76.80
2023-02-22T22:51:41.170Z,77.32
2023-02-22T22:54:44.342Z,76.57
2023-02-22T22:57:47.146Z,76.96
2023-02-22T23:00:50.254Z,77.18
2023-02-22T23:04:01.560Z,76.34
2023-02-22T23:07:06.794Z,76.38
2023-02-22T23:10:12.832Z,76.64
2023-02-22T23:13:15.888Z,75.12
2023-02-22T23:16:20.022Z,75.19
2023-02-22T23:19:23.045Z,75.49
2023-02-22T23:22:27.591Z,75.37
2023-02-22T23:25:30.629Z,74.94
2023-02-22T23:28:33.329Z,74.74
2023-02-22T23:31:39.846Z,74.04
2023-02-22T23:34:42.720Z,74.07
2023-02-22T23:37:53.124Z,74.20
2023-02-22T23:40:57.821Z,73.84
2023-02-22T23:44:01.119Z,73.71
2023-02-22T23:47:04.529Z,73.91
2023-02-22T23:50:13.651Z,74.17
2023-02-22T23:53:16.468Z,74.23
2023-02-22T23:56:22.152Z,74.32
2023-02-22T23:59:26.778Z,74.22
